Flugplatz Dortmund

Bericht für EDLW

vom 15.07. um 18:20 UTC

Wind 6 kt aus 50°

Sichtweite 10 km oder mehr

gute Sicht, keine Wolken < 5000 ft, keine CB, keine Wettererscheinungen (CAVOK)

Temperatur 25.0°C

Taupunkt 7.0°C

Luftfeuchtigkeit 32%

Luftdruck 1015 hPa

EDLW 151820Z 05006KT 020V090 CAVOK 25/07 Q1015

Prognose für EDLW

vom 15.07. um 17:00 UTC

Zwischen 18:00 UTC und 18:00 UTC

Wind 7 kt aus 40°

Sichtweite 10 km oder mehr

keine signifikanten Wettererscheinungen

keine Wolken


Zwischen 19:00 UTC und 08:00 UTC zeitweise

variable Windrichtung mit 3 kt

TAF EDLW 151700Z 1518/1618 04007KT CAVOK TEMPO 1519/1608 VRB03KT
Impressum